Terminal Aerodrome Forecast
Issued by NWS Cleveland, OH

Home | Current Version | Previous Version | Graphics & Text | Print | Product List | Glossary On
Versions: 1 2 3 4 5 6 7 8 9 10 11 12 13 14 15 16 17 18 19
000
FTUS41 KCLE 170900 AAC
TAFYNG
TAF AMD
KYNG 170914Z 1709/1806 28007KT 2SM RA BR OVC003
     FM171100 VRB03KT 2SM BR VCSH OVC007
     FM171300 28004KT 6SM HZ VCSH SCT007 OVC012
     FM171600 32006KT P6SM SCT012 BKN035
     FM172100 33007KT P6SM BKN050=

USA.gov is the U.S. government's official web portal to all federal, state and local government web resources and services.